createdAt,value
2023-01-20T00:01:43.303Z,25.60
2023-01-20T00:04:11.811Z,24.25
2023-01-20T00:06:40.025Z,23.63
2023-01-20T00:09:08.228Z,49.47
2023-01-20T00:11:36.480Z,66.10
2023-01-20T00:14:06.116Z,49.53
2023-01-20T00:16:34.348Z,55.88
2023-01-20T00:19:03.419Z,64.93
2023-01-20T00:21:31.708Z,95.45
2023-01-20T00:24:00.494Z,110.82
2023-01-20T00:26:30.161Z,111.07
2023-01-20T00:28:58.802Z,86.45
2023-01-20T00:31:29.900Z,84.00
2023-01-20T00:34:00.318Z,106.60
2023-01-20T00:36:30.612Z,107.57
2023-01-20T00:38:59.204Z,73.05
2023-01-20T00:41:27.410Z,59.08
2023-01-20T00:43:55.718Z,76.10
2023-01-20T00:46:24.046Z,71.70
2023-01-20T00:48:52.290Z,71.97
2023-01-20T00:51:20.623Z,63.75
2023-01-20T00:53:48.934Z,81.90
2023-01-20T00:56:17.222Z,76.13
2023-01-20T00:58:45.789Z,70.22
2023-01-20T01:01:14.169Z,66.88
2023-01-20T01:03:42.345Z,70.28
2023-01-20T01:06:18.599Z,69.80
2023-01-20T01:08:47.206Z,58.40
2023-01-20T01:11:15.400Z,74.15
2023-01-20T01:13:43.913Z,75.38
2023-01-20T01:16:14.444Z,72.45
2023-01-20T01:18:43.903Z,69.25
2023-01-20T01:21:15.246Z,69.85
2023-01-20T01:23:44.112Z,66.20
2023-01-20T01:26:12.733Z,60.00
2023-01-20T01:28:41.704Z,60.00
2023-01-20T01:31:10.704Z,56.10
2023-01-20T01:33:39.343Z,57.70
2023-01-20T01:36:08.901Z,63.08
2023-01-20T01:38:37.238Z,68.90
2023-01-20T01:41:07.452Z,69.43
2023-01-20T01:43:37.925Z,66.82
2023-01-20T01:46:06.981Z,60.00
2023-01-20T01:48:41.398Z,58.05
2023-01-20T01:51:21.738Z,62.55
2023-01-20T01:54:01.227Z,60.53
2023-01-20T01:56:31.352Z,58.47
2023-01-20T01:59:02.838Z,56.92
2023-01-20T02:01:37.636Z,58.72
2023-01-20T02:04:14.756Z,55.03
2023-01-20T02:06:50.535Z,50.65
2023-01-20T02:09:19.577Z,50.15
2023-01-20T02:11:57.589Z,45.13
2023-01-20T02:14:38.624Z,45.72
2023-01-20T02:17:31.141Z,45.60
2023-01-20T02:20:14.638Z,43.92
2023-01-20T02:22:56.461Z,55.58
2023-01-20T02:26:00.195Z,52.03
2023-01-20T02:28:34.934Z,52.92
2023-01-20T02:31:28.932Z,52.85
2023-01-20T02:34:21.633Z,48.08
2023-01-20T02:36:56.274Z,54.47
2023-01-20T02:39:40.725Z,52.03
2023-01-20T02:42:19.756Z,50.63
2023-01-20T02:45:24.860Z,50.88
2023-01-20T02:48:08.096Z,47.00
2023-01-20T02:50:59.769Z,50.35
2023-01-20T02:53:33.401Z,50.42
2023-01-20T02:56:01.784Z,49.33
2023-01-20T02:58:51.343Z,49.60
2023-01-20T03:01:33.825Z,45.60
2023-01-20T03:04:04.205Z,45.88
2023-01-20T03:06:41.617Z,48.70
2023-01-20T03:09:14.825Z,46.42
2023-01-20T03:11:51.249Z,44.22
2023-01-20T03:14:20.185Z,47.75
2023-01-20T03:16:48.514Z,48.17
2023-01-20T03:19:20.310Z,45.85
2023-01-20T03:21:49.587Z,43.47
2023-01-20T03:24:17.878Z,44.28
2023-01-20T03:26:46.130Z,43.70
2023-01-20T03:29:14.357Z,40.92
2023-01-20T03:31:55.820Z,39.17
2023-01-20T03:34:26.265Z,39.17
2023-01-20T03:36:55.880Z,39.72
2023-01-20T03:39:25.648Z,37.80
2023-01-20T03:42:05.779Z,35.78
2023-01-20T03:45:01.645Z,38.97
2023-01-20T03:48:03.956Z,33.13
2023-01-20T03:50:35.180Z,32.35
2023-01-20T03:53:30.840Z,31.37
2023-01-20T03:56:17.739Z,32.17
2023-01-20T03:58:50.607Z,33.00
2023-01-20T04:01:24.113Z,30.52
2023-01-20T04:03:54.508Z,33.20
2023-01-20T04:06:26.244Z,32.53
2023-01-20T04:09:06.722Z,36.20
2023-01-20T04:11:35.464Z,35.10
2023-01-20T04:14:03.989Z,33.38
2023-01-20T04:16:32.259Z,32.70
2023-01-20T04:19:07.703Z,32.72
2023-01-20T04:21:48.622Z,33.17
2023-01-20T04:24:28.657Z,34.20
2023-01-20T04:27:04.960Z,31.10
2023-01-20T04:29:33.081Z,32.83
2023-01-20T04:32:02.697Z,32.95
2023-01-20T04:34:31.298Z,31.77
2023-01-20T04:36:59.550Z,32.10
2023-01-20T04:39:27.799Z,33.03
2023-01-20T04:41:56.029Z,31.85
2023-01-20T04:44:24.224Z,32.08
2023-01-20T04:46:56.664Z,31.75
2023-01-20T04:49:24.832Z,30.25
2023-01-20T04:51:52.891Z,29.50
2023-01-20T04:54:21.239Z,29.88
2023-01-20T04:56:49.956Z,31.90
2023-01-20T04:59:18.159Z,32.90
2023-01-20T05:01:46.540Z,31.38
2023-01-20T05:04:14.760Z,28.45
2023-01-20T05:06:42.933Z,31.48
2023-01-20T05:09:15.213Z,32.63
2023-01-20T05:11:44.494Z,31.92
2023-01-20T05:14:13.705Z,33.63
2023-01-20T05:16:42.059Z,33.45
2023-01-20T05:19:12.671Z,34.78
2023-01-20T05:21:41.074Z,36.90
2023-01-20T05:24:10.089Z,33.95
2023-01-20T05:26:38.351Z,33.58
2023-01-20T05:29:06.739Z,33.35
2023-01-20T05:31:35.188Z,34.05
2023-01-20T05:34:03.527Z,33.03
2023-01-20T05:36:31.890Z,32.60
2023-01-20T05:39:00.111Z,32.00
2023-01-20T05:41:28.412Z,31.52
2023-01-20T05:43:56.745Z,33.08
2023-01-20T05:46:24.986Z,32.20
2023-01-20T05:48:53.194Z,32.65
2023-01-20T05:51:21.419Z,31.65
2023-01-20T05:53:49.557Z,29.80
2023-01-20T05:56:17.734Z,31.85
2023-01-20T05:58:45.958Z,31.05
2023-01-20T06:01:14.936Z,31.80
2023-01-20T06:03:43.446Z,30.63
2023-01-20T06:06:13.312Z,30.58
2023-01-20T06:08:41.874Z,30.50
2023-01-20T06:11:10.311Z,31.75
2023-01-20T06:13:38.585Z,30.98
2023-01-20T06:16:07.743Z,31.15
2023-01-20T06:18:36.472Z,32.97
2023-01-20T06:21:04.966Z,28.75
2023-01-20T06:23:33.584Z,32.63
2023-01-20T06:26:04.876Z,31.95
2023-01-20T06:28:33.606Z,32.87
2023-01-20T06:31:04.113Z,30.48
2023-01-20T06:33:33.360Z,31.60
2023-01-20T06:36:02.476Z,29.25
2023-01-20T06:38:32.842Z,30.88
2023-01-20T06:41:04.003Z,29.83
2023-01-20T06:43:33.773Z,28.73
2023-01-20T06:46:07.862Z,29.20
2023-01-20T06:48:36.171Z,32.00
2023-01-20T06:51:05.624Z,30.02
2023-01-20T06:53:34.372Z,29.63
2023-01-20T06:56:02.915Z,30.17
2023-01-20T06:58:33.531Z,30.67
2023-01-20T07:01:12.047Z,31.08
2023-01-20T07:03:42.377Z,30.45
2023-01-20T07:06:25.625Z,34.63
2023-01-20T07:08:54.063Z,37.00
2023-01-20T07:11:22.210Z,36.70
2023-01-20T07:13:50.535Z,37.15
2023-01-20T07:16:19.367Z,35.42
2023-01-20T07:18:52.206Z,35.83
2023-01-20T07:21:21.040Z,35.70
2023-01-20T07:23:50.137Z,35.35
2023-01-20T07:26:21.422Z,34.70
2023-01-20T07:28:49.990Z,33.30
2023-01-20T07:31:23.279Z,36.78
2023-01-20T07:33:52.003Z,33.90
2023-01-20T07:36:20.664Z,39.08
2023-01-20T07:38:53.881Z,39.13
2023-01-20T07:41:22.988Z,43.50
2023-01-20T07:43:52.793Z,42.75
2023-01-20T07:46:22.104Z,47.20
2023-01-20T07:48:51.148Z,44.58
2023-01-20T07:51:19.919Z,45.90
2023-01-20T07:53:50.165Z,45.92
2023-01-20T07:56:24.844Z,46.45
2023-01-20T07:58:54.293Z,44.53
2023-01-20T08:01:27.789Z,42.88
2023-01-20T08:03:57.088Z,41.80
2023-01-20T08:06:26.907Z,35.88
2023-01-20T08:08:58.738Z,35.65
2023-01-20T08:11:27.253Z,35.25
2023-01-20T08:13:55.534Z,38.00
2023-01-20T08:16:23.957Z,38.92
2023-01-20T08:18:54.926Z,35.35
2023-01-20T08:21:31.582Z,39.17
2023-01-20T08:24:02.268Z,38.65
2023-01-20T08:26:32.874Z,38.53
2023-01-20T08:29:07.240Z,39.13
2023-01-20T08:31:36.077Z,36.15
2023-01-20T08:34:04.633Z,37.03
2023-01-20T08:36:35.763Z,32.33
2023-01-20T08:39:09.712Z,36.83
2023-01-20T08:41:40.102Z,35.00
2023-01-20T08:44:09.206Z,34.50
2023-01-20T08:46:41.327Z,37.80
2023-01-20T08:49:15.296Z,30.10
2023-01-20T08:51:45.142Z,34.13
2023-01-20T08:54:14.483Z,30.08
2023-01-20T08:56:43.094Z,29.02
2023-01-20T08:59:11.867Z,29.90
2023-01-20T09:01:40.143Z,26.17
2023-01-20T09:04:08.413Z,28.75
2023-01-20T09:06:48.168Z,30.15
2023-01-20T09:09:18.244Z,31.05
2023-01-20T09:11:46.575Z,31.17
2023-01-20T09:14:17.378Z,28.92
2023-01-20T09:16:45.969Z,31.35
2023-01-20T09:19:14.215Z,30.13
2023-01-20T09:21:43.265Z,30.98
2023-01-20T09:24:11.565Z,28.60
2023-01-20T09:26:39.702Z,28.27
2023-01-20T09:29:19.455Z,27.30
2023-01-20T09:31:53.676Z,24.55
2023-01-20T09:34:22.092Z,23.25
2023-01-20T09:36:55.894Z,24.50
2023-01-20T09:39:24.743Z,24.13
2023-01-20T09:41:53.330Z,22.88
2023-01-20T09:44:39.942Z,32.05
2023-01-20T09:47:31.616Z,25.95
2023-01-20T09:50:21.382Z,27.58
2023-01-20T09:52:49.908Z,22.80
2023-01-20T09:55:25.486Z,24.17
2023-01-20T09:58:20.068Z,25.05
2023-01-20T10:00:54.150Z,23.52
2023-01-20T10:03:32.396Z,23.58
2023-01-20T10:06:02.452Z,23.77
2023-01-20T10:08:55.759Z,22.80
2023-01-20T10:11:38.545Z,22.73
2023-01-20T10:14:32.719Z,22.85
2023-01-20T10:17:25.959Z,20.98
2023-01-20T10:20:08.514Z,22.35
2023-01-20T10:22:53.383Z,22.65
2023-01-20T10:25:37.049Z,25.08
2023-01-20T10:28:19.177Z,21.42
2023-01-20T10:33:09.943Z,21.55
2023-01-20T10:36:00.231Z,23.33
2023-01-20T10:38:50.195Z,33.63
2023-01-20T10:41:42.628Z,28.20
2023-01-20T10:44:15.838Z,24.75
2023-01-20T10:47:13.450Z,26.02
2023-01-20T10:49:48.087Z,21.83
2023-01-20T10:52:25.329Z,21.25
2023-01-20T10:55:24.073Z,21.58
2023-01-20T10:58:02.254Z,20.92
2023-01-20T11:00:32.424Z,21.77
2023-01-20T11:03:02.800Z,25.63
2023-01-20T11:05:34.403Z,23.92
2023-01-20T11:08:03.868Z,19.70
2023-01-20T11:10:33.889Z,21.38
2023-01-20T11:13:03.104Z,18.98
2023-01-20T11:15:36.267Z,21.25
2023-01-20T11:18:16.893Z,19.08
2023-01-20T11:20:54.564Z,20.80
2023-01-20T11:23:31.529Z,20.42
2023-01-20T11:26:02.834Z,21.13
2023-01-20T11:28:57.935Z,20.83
2023-01-20T11:31:46.345Z,20.50
2023-01-20T11:34:27.749Z,20.90
2023-01-20T11:37:23.198Z,21.87
2023-01-20T11:39:51.477Z,21.35
2023-01-20T11:42:29.792Z,19.63
2023-01-20T11:45:20.398Z,19.98
2023-01-20T11:48:16.108Z,22.73
2023-01-20T11:50:54.771Z,18.85
2023-01-20T11:53:28.969Z,19.33
2023-01-20T11:56:02.587Z,19.58
2023-01-20T11:58:48.599Z,18.20
2023-01-20T12:01:26.348Z,18.70
2023-01-20T12:04:19.717Z,21.35
2023-01-20T12:06:58.476Z,20.23
2023-01-20T12:09:33.454Z,20.17
2023-01-20T12:12:35.211Z,19.88
2023-01-20T12:15:10.707Z,18.60
2023-01-20T12:17:51.118Z,19.23
2023-01-20T12:20:56.757Z,25.85
2023-01-20T12:23:44.768Z,20.60
2023-01-20T12:26:18.583Z,16.95
2023-01-20T12:29:05.084Z,18.23
2023-01-20T12:31:33.850Z,20.90
2023-01-20T12:34:15.801Z,22.27
2023-01-20T12:36:53.253Z,19.75
2023-01-20T12:39:46.594Z,16.10
2023-01-20T12:42:40.118Z,19.20
2023-01-20T12:46:05.980Z,19.90
2023-01-20T12:48:46.286Z,19.33
2023-01-20T12:51:46.531Z,18.58
2023-01-20T12:54:48.401Z,19.67
2023-01-20T12:57:38.868Z,17.65
2023-01-20T13:00:16.255Z,17.02
2023-01-20T13:03:26.247Z,21.40
2023-01-20T13:06:04.096Z,20.52
2023-01-20T13:08:41.566Z,20.38
2023-01-20T13:14:20.726Z,17.98
2023-01-20T13:17:04.871Z,20.45
2023-01-20T13:19:40.806Z,16.65
2023-01-20T13:22:15.302Z,17.63
2023-01-20T13:24:47.168Z,19.42
2023-01-20T13:29:52.125Z,18.20
2023-01-20T13:32:46.939Z,17.88
2023-01-20T13:35:21.570Z,19.67
2023-01-20T13:37:55.393Z,18.75
2023-01-20T13:40:39.230Z,18.48
2023-01-20T13:43:25.767Z,18.08
2023-01-20T13:46:26.294Z,17.63
2023-01-20T13:49:22.005Z,22.33
2023-01-20T13:51:50.411Z,16.60
2023-01-20T13:54:24.527Z,18.88
2023-01-20T13:56:53.675Z,17.20
2023-01-20T13:59:21.977Z,19.40
2023-01-20T14:01:50.059Z,20.45
2023-01-20T14:04:19.928Z,17.45
2023-01-20T14:06:51.192Z,22.10
2023-01-20T14:09:25.989Z,17.48
2023-01-20T14:11:57.536Z,17.65
2023-01-20T14:14:27.584Z,21.58
2023-01-20T14:16:57.229Z,16.73
2023-01-20T14:19:35.156Z,17.98
2023-01-20T14:22:17.945Z,17.10
2023-01-20T14:24:47.897Z,17.73
2023-01-20T14:27:28.626Z,17.50
2023-01-20T14:29:58.736Z,17.55
2023-01-20T14:32:37.785Z,21.50
2023-01-20T14:35:15.953Z,18.50
2023-01-20T14:37:45.071Z,20.77
2023-01-20T14:40:13.158Z,17.63
2023-01-20T14:42:41.373Z,19.27
2023-01-20T14:45:21.125Z,17.13
2023-01-20T14:47:50.693Z,17.90
2023-01-20T14:50:21.293Z,17.95
2023-01-20T14:52:49.756Z,18.65
2023-01-20T14:56:19.560Z,17.15
2023-01-20T14:58:49.917Z,17.75
2023-01-20T15:01:26.365Z,18.05
2023-01-20T15:03:59.572Z,16.55
2023-01-20T15:06:28.049Z,18.13
2023-01-20T15:09:06.140Z,20.85
2023-01-20T15:11:35.403Z,19.40
2023-01-20T15:14:03.698Z,17.38
2023-01-20T15:16:37.984Z,22.95
2023-01-20T15:19:15.344Z,22.70
2023-01-20T15:21:47.726Z,26.67
2023-01-20T15:24:45.999Z,18.50
2023-01-20T15:27:30.731Z,29.20
2023-01-20T15:30:20.065Z,21.05
2023-01-20T15:32:50.543Z,20.58
2023-01-20T15:35:21.253Z,20.42
2023-01-20T15:37:50.588Z,20.42
2023-01-20T15:40:21.662Z,22.65
2023-01-20T15:42:50.948Z,24.83
2023-01-20T15:45:19.798Z,21.40
2023-01-20T15:47:48.072Z,25.17
2023-01-20T15:50:22.095Z,18.52
2023-01-20T15:52:51.961Z,20.80
2023-01-20T15:55:20.590Z,19.98
2023-01-20T15:57:52.783Z,18.08
2023-01-20T16:00:23.784Z,20.33
2023-01-20T16:02:52.389Z,18.53
2023-01-20T16:05:20.801Z,19.08
2023-01-20T16:07:49.104Z,19.45
2023-01-20T16:10:19.690Z,19.90
2023-01-20T16:12:48.535Z,19.85
2023-01-20T16:15:18.470Z,19.20
2023-01-20T16:17:47.041Z,20.13
2023-01-20T16:20:26.246Z,20.70
2023-01-20T16:22:54.630Z,19.58
2023-01-20T16:25:22.943Z,20.25
2023-01-20T16:27:51.432Z,21.67
2023-01-20T16:30:22.510Z,19.90
2023-01-20T16:32:51.372Z,22.57
2023-01-20T16:35:21.386Z,25.45
2023-01-20T16:37:49.740Z,20.70
2023-01-20T16:40:20.888Z,19.90
2023-01-20T16:42:49.481Z,23.60
2023-01-20T16:45:29.470Z,19.05
2023-01-20T16:47:57.991Z,21.73
2023-01-20T16:50:26.101Z,21.80
2023-01-20T16:52:54.489Z,21.45
2023-01-20T16:55:23.200Z,23.00
2023-01-20T16:57:51.393Z,18.73
2023-01-20T17:00:20.361Z,22.13
2023-01-20T17:02:53.351Z,19.73
2023-01-20T17:05:22.409Z,18.40
2023-01-20T17:07:51.339Z,24.52
2023-01-20T17:10:20.716Z,21.45
2023-01-20T17:12:49.385Z,21.75
2023-01-20T17:15:17.861Z,21.50
2023-01-20T17:17:53.636Z,19.95
2023-01-20T17:20:22.483Z,19.83
2023-01-20T17:22:53.269Z,20.42
2023-01-20T17:25:22.388Z,23.45
2023-01-20T17:27:50.583Z,23.13
2023-01-20T17:30:19.253Z,20.13
2023-01-20T17:32:48.978Z,23.15
2023-01-20T17:35:17.431Z,25.65
2023-01-20T17:37:45.861Z,23.17
2023-01-20T17:40:14.843Z,20.35
2023-01-20T17:42:43.353Z,23.58
2023-01-20T17:45:12.200Z,22.38
2023-01-20T17:47:40.538Z,22.95
2023-01-20T17:50:09.439Z,22.52
2023-01-20T17:52:37.990Z,26.60
2023-01-20T17:55:06.375Z,23.73
2023-01-20T17:57:34.612Z,22.52
2023-01-20T18:00:03.973Z,28.27
2023-01-20T18:02:32.592Z,24.98
2023-01-20T18:05:00.873Z,21.98
2023-01-20T18:07:29.238Z,20.15
2023-01-20T18:09:57.439Z,18.83
2023-01-20T18:12:26.021Z,22.05
2023-01-20T18:14:54.498Z,22.17
2023-01-20T18:17:22.653Z,23.10
2023-01-20T18:19:51.172Z,23.35
2023-01-20T18:22:19.243Z,24.00
2023-01-20T18:24:47.575Z,28.67
2023-01-20T18:27:15.809Z,23.85
2023-01-20T18:29:44.190Z,22.30
2023-01-20T18:32:12.501Z,25.42
2023-01-20T18:34:40.658Z,24.98
2023-01-20T18:37:08.826Z,27.10
2023-01-20T18:39:37.290Z,23.20
2023-01-20T18:42:05.665Z,26.30
2023-01-20T18:44:33.863Z,28.35
2023-01-20T18:47:02.069Z,30.73
2023-01-20T18:49:30.362Z,31.00
2023-01-20T18:51:58.616Z,25.38
2023-01-20T18:54:26.737Z,29.10
2023-01-20T18:56:54.982Z,27.17
2023-01-20T18:59:23.333Z,25.80
2023-01-20T19:01:51.703Z,35.80
2023-01-20T19:04:20.100Z,34.47
2023-01-20T19:06:48.201Z,29.23
2023-01-20T19:09:16.602Z,23.55
2023-01-20T19:11:44.882Z,25.98
2023-01-20T19:14:15.547Z,37.47
2023-01-20T19:16:44.059Z,36.22
2023-01-20T19:19:13.199Z,37.40
2023-01-20T19:21:42.125Z,45.53
2023-01-20T19:24:16.939Z,34.17
2023-01-20T19:26:45.385Z,33.30
2023-01-20T19:29:15.990Z,34.53
2023-01-20T19:31:44.266Z,34.08
2023-01-20T19:34:13.115Z,34.58
2023-01-20T19:36:41.892Z,37.92
2023-01-20T19:39:10.131Z,40.00
2023-01-20T19:41:38.476Z,44.17
2023-01-20T19:44:08.116Z,49.00
2023-01-20T19:46:38.364Z,52.15
2023-01-20T19:49:07.238Z,40.15
2023-01-20T19:51:35.826Z,36.05
2023-01-20T19:54:05.587Z,33.20
2023-01-20T19:56:36.530Z,41.72
2023-01-20T19:59:06.248Z,35.22
2023-01-20T20:01:36.923Z,55.08
2023-01-20T20:04:10.172Z,27.58
2023-01-20T20:06:40.866Z,32.67
2023-01-20T20:09:12.487Z,31.67
2023-01-20T20:11:41.316Z,28.75
2023-01-20T20:14:13.082Z,28.80
2023-01-20T20:16:42.069Z,31.33
2023-01-20T20:19:13.523Z,33.90
2023-01-20T20:21:41.984Z,29.23
2023-01-20T20:24:12.914Z,31.45
2023-01-20T20:26:42.092Z,24.50
2023-01-20T20:29:12.539Z,29.13
2023-01-20T20:31:43.383Z,29.02
2023-01-20T20:34:15.989Z,26.95
2023-01-20T20:36:44.715Z,31.17
2023-01-20T20:39:17.912Z,28.77
2023-01-20T20:41:46.896Z,25.80
2023-01-20T20:44:15.214Z,30.23
2023-01-20T20:46:43.452Z,38.92
2023-01-20T20:49:17.004Z,50.55
2023-01-20T20:51:45.848Z,41.92
2023-01-20T20:54:14.361Z,38.80
2023-01-20T20:56:42.733Z,40.40
2023-01-20T20:59:11.339Z,35.95
2023-01-20T21:01:39.767Z,29.83
2023-01-20T21:04:08.252Z,23.83
2023-01-20T21:06:36.714Z,36.67
2023-01-20T21:09:05.057Z,39.05
2023-01-20T21:11:33.376Z,34.50
2023-01-20T21:14:01.754Z,31.85
2023-01-20T21:16:30.344Z,27.30
2023-01-20T21:18:59.308Z,23.83
2023-01-20T21:21:28.361Z,30.10
2023-01-20T21:23:57.805Z,33.58
2023-01-20T21:26:29.949Z,29.27
2023-01-20T21:28:59.715Z,31.33
2023-01-20T21:31:28.015Z,34.78
2023-01-20T21:33:58.233Z,30.08
2023-01-20T21:36:28.236Z,35.00
2023-01-20T21:38:56.518Z,34.80
2023-01-20T21:41:24.707Z,30.52
2023-01-20T21:43:53.055Z,36.67
2023-01-20T21:46:21.441Z,34.83
2023-01-20T21:48:49.804Z,27.65
2023-01-20T21:51:17.968Z,28.38
2023-01-20T21:53:46.236Z,35.00
2023-01-20T21:56:17.666Z,36.10
2023-01-20T21:58:46.220Z,37.25
2023-01-20T22:01:14.471Z,40.15
2023-01-20T22:03:42.764Z,37.25
2023-01-20T22:06:11.042Z,36.17
2023-01-20T22:08:39.125Z,32.17
2023-01-20T22:11:07.466Z,41.55
2023-01-20T22:13:35.839Z,40.70
2023-01-20T22:16:04.507Z,42.55
2023-01-20T22:18:33.085Z,41.25
2023-01-20T22:21:06.059Z,44.80
2023-01-20T22:23:35.895Z,36.35
2023-01-20T22:26:04.435Z,41.47
2023-01-20T22:28:34.549Z,32.28
2023-01-20T22:31:11.691Z,30.90
2023-01-20T22:33:40.271Z,31.95
2023-01-20T22:36:08.733Z,34.92
2023-01-20T22:38:36.832Z,36.72
2023-01-20T22:41:06.351Z,30.70
2023-01-20T22:43:34.838Z,35.30
2023-01-20T22:46:04.326Z,37.08
2023-01-20T22:48:35.690Z,40.25
2023-01-20T22:51:09.425Z,35.45
2023-01-20T22:53:38.618Z,30.63
2023-01-20T22:56:08.469Z,33.25
2023-01-20T22:58:36.946Z,26.90
2023-01-20T23:01:05.695Z,26.55
2023-01-20T23:03:33.976Z,31.73
2023-01-20T23:06:02.098Z,29.88
2023-01-20T23:08:32.784Z,27.00
2023-01-20T23:11:04.603Z,27.38
2023-01-20T23:13:33.090Z,39.67
2023-01-20T23:16:01.837Z,46.60
2023-01-20T23:18:30.069Z,41.10
2023-01-20T23:20:58.444Z,44.30
2023-01-20T23:23:28.393Z,42.55
2023-01-20T23:26:03.382Z,44.30
2023-01-20T23:28:32.185Z,43.72
2023-01-20T23:31:02.413Z,42.17
2023-01-20T23:33:31.881Z,42.75
2023-01-20T23:36:14.400Z,43.10
2023-01-20T23:38:44.161Z,41.88
2023-01-20T23:41:13.975Z,41.72
2023-01-20T23:43:42.776Z,36.17
2023-01-20T23:46:11.564Z,34.60
2023-01-20T23:48:40.038Z,33.53
2023-01-20T23:51:08.525Z,31.65
2023-01-20T23:53:39.211Z,29.55
2023-01-20T23:56:11.990Z,28.42
2023-01-20T23:58:40.389Z,30.30
